Flight Track Log - Related Links

Times and Time Zones

All times are in EDT time to prevent confusion due to time zone crossing. See the DAL110 flight status page for this flight to view local times or setup timezone preferences in your user account.

Time Position Orientation Groundspeed Altitude Reporting Facility
EDT Latitude Longitude Course Direction KTS MPH feet Rate Location/Type
Tue 08:41:07 AM 33.7110 -84.2770 North 276 318 6,000  Level FlightAware ADS-B
Tue 08:41:37 AM 33.7460 -84.2790 357° North 275 316 7,700 2,800 Climbing FlightAware ADS-B
Tue 08:42:07 AM 33.7890 -84.2860 352° North 292 336 8,800 1,855 Climbing FlightAware ADS-B
Tue 08:42:32 AM 33.8130 -84.3140 316° Northwest 292 336 9,400 1,950 Climbing FlightAware ADS-B
Tue 08:42:47 AM 33.8160 -84.3390 278° West 299 344 10,100 3,055 Climbing FlightAware ADS-B
Tue 08:43:27 AM 33.8120 -84.4050 266° West 305 351 12,200 2,612 Climbing FlightAware ADS-B
Tue 08:44:12 AM 33.8110 -84.4860 269° West 340 391 13,800 2,188 Climbing FlightAware ADS-B
Tue 08:44:52 AM 33.8100 -84.5670 269° West 368 423 15,300 2,541 Climbing FlightAware ADS-B
Tue 08:45:37 AM 33.7920 -84.6600 257° West 388 447 17,400 3,388 Climbing FlightAware ADS-B
Tue 08:46:17 AM 33.7710 -84.7420 253° West 377 434 20,100 3,600 Climbing FlightAware ADS-B
Tue 08:47:02 AM 33.7490 -84.8320 254° West 381 438 22,500 2,175 Climbing FlightAware ADS-B
Tue 08:47:37 AM 33.7320 -84.8980 253° West 404 465 23,000 1,533 Climbing FlightAware ADS-B
Tue 08:48:32 AM 33.6990 -85.0320 254° West 417 480 24,800 2,211 Climbing FlightAware ADS-B
Tue 08:49:12 AM 33.6760 -85.1210 253° West 429 494 26,500 2,533 Climbing FlightAware ADS-B
Tue 08:50:02 AM 33.6520 -85.2280 255° West 431 496 28,600 2,710 Climbing FlightAware ADS-B
Tue 08:50:14 AM 33.6488 -85.2723 265° West 432 497 29,300 2,739 Climbing FlightAware ADS-B
Tue 08:50:48 AM 33.6494 -85.3526 271° West 434 499 30,700 2,877 Climbing FlightAware ADS-B
Tue 08:51:27 AM 33.6518 -85.4465 272° West 434 499 32,800 1,886 Climbing FlightAware ADS-B
Tue 08:52:33 AM 33.6549 -85.6007 271° West 421 484 34,000 933 Climbing FlightAware ADS-B
Tue 08:53:42 AM 33.6560 -85.7330 271° West 421 484 34,900 2,151 Climbing FlightAware ADS-B
Tue 08:54:19 AM 33.6586 -85.8411 272° West 410 472 37,800 1,938 Climbing FlightAware ADS-B
Tue 08:55:18 AM 33.6606 -85.9773 271° West 410 472 38,000 78 Climbing FlightAware ADS-B
Tue 08:56:52 AM 33.6630 -86.1790 271° West 414 476 38,000  Level FlightAware ADS-B
Tue 08:57:52 AM 33.6650 -86.3160 271° West 413 475 38,000  Level FlightAware ADS-B
Tue 08:58:52 AM 33.6660 -86.4500 271° West 412 474 38,000  Level FlightAware ADS-B
Tue 08:59:37 AM 33.6670 -86.5510 271° West 412 474 38,000  Level FlightAware ADS-B
Tue 09:00:32 AM 33.6680 -86.6800 271° West 414 476 38,000  Level FlightAware ADS-B
Tue 09:01:27 AM 33.6700 -86.8070 271° West 414 476 38,000  Level FlightAware ADS-B
Tue 09:02:07 AM 33.6730 -86.8980 272° West 412 474 38,000  Level FlightAware ADS-B
Tue 09:02:57 AM 33.6930 -87.0070 282° West 415 478 38,000  Level FlightAware ADS-B
Tue 09:04:27 AM 33.7360 -87.2060 285° West 415 478 38,000  Level FlightAware ADS-B
Tue 09:05:07 AM 33.7530 -87.2820 285° West 415 478 38,000  Level FlightAware ADS-B
Tue 09:05:57 AM 33.7740 -87.3770 285° West 415 478 38,000  Level FlightAware ADS-B
Tue 09:06:37 AM 33.7910 -87.4530 285° West 415 478 38,000  Level FlightAware ADS-B
Tue 09:07:17 AM 33.8080 -87.5290 285° West 415 478 38,000  Level FlightAware ADS-B
Tue 09:07:57 AM 33.8250 -87.6050 285° West 415 478 38,000  Level FlightAware ADS-B
Tue 09:08:37 AM 33.8420 -87.6810 285° West 415 478 38,000  Level FlightAware ADS-B
Tue 09:09:27 AM 33.8630 -87.7750 285° West 415 478 38,000  Level FlightAware ADS-B
Tue 09:10:07 AM 33.8800 -87.8510 285° West 415 478 38,000  Level FlightAware ADS-B
Tue 09:10:47 AM 33.8970 -87.9270 285° West 415 478 38,000  Level FlightAware ADS-B
Tue 09:11:27 AM 33.9130 -88.0030 284° West 415 478 38,000  Level FlightAware ADS-B
Tue 09:12:07 AM 33.9300 -88.0790 285° West 415 478 38,000  Level FlightAware ADS-B
Tue 09:12:57 AM 33.9510 -88.1740 285° West 415 478 38,000  Level FlightAware ADS-B
Tue 09:13:37 AM 33.9680 -88.2500 285° West 415 478 38,000  Level FlightAware ADS-B
Tue 09:14:46 AM 34.0206 -88.6028 285° West 426 490 38,000  Level Memphis Center
Tue 09:15:46 AM 34.0453 -88.7378 282° West 426 490 38,000  Level Memphis Center
Tue 09:16:46 AM 34.0739 -88.8675 285° West 415 478 38,000  Level Memphis Center
Tue 09:17:46 AM 34.1006 -89.0025 283° West 410 472 38,000  Level Memphis Center
Tue 09:18:46 AM 34.1272 -89.1478 283° West 410 472 38,000  Level Memphis Center
Tue 09:19:46 AM 34.1533 -89.2803 283° West 410 472 38,000  Level Memphis Center
Tue 09:20:46 AM 34.1794 -89.4156 283° West 410 472 38,000  Level Memphis Center
Tue 09:21:46 AM 34.2056 -89.5508 283° West 410 472 38,000  Level Memphis Center
Tue 09:22:46 AM 34.2294 -89.6889 282° West 416 479 38,000  Level Memphis Center
Tue 09:23:46 AM 34.2550 -89.8244 283° West 416 479 38,000  Level Memphis Center
Tue 09:24:46 AM 34.2806 -89.9625 283° West 416 479 38,000  Level Memphis Center
Tue 09:25:46 AM 34.3039 -90.0831 283° West 416 479 38,000  Level Memphis Center
Tue 09:26:46 AM 34.3311 -90.2189 284° West 411 473 38,000  Level Memphis Center
Tue 09:27:46 AM 34.3542 -90.3522 282° West 411 473 38,000  Level Memphis Center
Tue 09:28:46 AM 34.3792 -90.4856 283° West 411 473 38,000  Level Memphis Center
Tue 09:29:46 AM 34.4061 -90.6342 282° West 416 479 38,000  Level Memphis Center
Tue 09:30:46 AM 34.4308 -90.7700 282° West 411 473 38,000  Level Memphis Center
Tue 09:31:46 AM 34.4553 -90.9036 283° West 411 473 38,000  Level Memphis Center
Tue 09:32:46 AM 34.4778 -91.0375 282° West 411 473 38,000  Level Memphis Center
Tue 09:33:46 AM 34.5039 -91.1711 283° West 411 473 38,000  Level Memphis Center
Tue 09:34:46 AM 34.5281 -91.3075 282° West 411 473 38,000  Level Memphis Center
Tue 09:35:46 AM 34.5500 -91.4414 281° West 411 473 38,000  Level Memphis Center
Tue 09:36:46 AM 34.5736 -91.5781 282° West 411 473 38,000  Level Memphis Center
Tue 09:37:46 AM 34.5975 -91.6994 283° West 411 473 38,000  Level Memphis Center
Tue 09:38:46 AM 34.6208 -91.8436 281° West 406 467 38,000  Level Memphis Center
Tue 09:39:46 AM 34.6422 -91.9803 281° West 411 473 38,000  Level Memphis Center
Tue 09:40:46 AM 34.6675 -92.1172 283° West 416 479 38,000  Level Memphis Center
Tue 09:41:46 AM 34.6906 -92.2539 282° West 416 479 38,000  Level Memphis Center
Tue 09:42:46 AM 34.7092 -92.3908 279° West 411 473 38,000  Level Memphis Center
Tue 09:43:46 AM 34.7278 -92.5328 279° West 411 473 38,000  Level Memphis Center
Tue 09:44:46 AM 34.7461 -92.6722 279° West 416 479 38,000  Level Memphis Center
Tue 09:45:46 AM 34.7625 -92.7939 279° West 416 479 38,000  Level Memphis Center
Tue 09:46:46 AM 34.7825 -92.9336 280° West 416 479 38,000  Level Memphis Center
Tue 09:47:46 AM 34.8025 -93.0733 280° West 416 479 38,000  Level Memphis Center
Tue 09:48:46 AM 34.8225 -93.2106 280° West 416 479 38,000  Level Memphis Center
Tue 09:54:42 AM 34.9340 -94.0440 280° West 412 474 38,000  Level FlightAware ADS-B
Tue 09:55:22 AM 34.9460 -94.1350 279° West 411 473 38,000  Level FlightAware ADS-B
Tue 09:56:07 AM 34.9600 -94.2400 279° West 409 471 38,000  Level FlightAware ADS-B
Tue 09:56:47 AM 34.9710 -94.3290 279° West 409 471 38,000  Level FlightAware ADS-B
Tue 09:57:42 AM 34.9860 -94.4490 279° West 408 470 38,000  Level FlightAware ADS-B
Tue 09:58:22 AM 34.9980 -94.5450 279° West 406 467 38,000  Level FlightAware ADS-B
Tue 09:59:07 AM 35.0090 -94.6370 278° West 406 467 38,000  Level FlightAware ADS-B
Tue 09:59:47 AM 35.0220 -94.7340 279° West 403 464 38,000  Level FlightAware ADS-B
Tue 10:00:27 AM 35.0330 -94.8180 279° West 403 464 38,000  Level FlightAware ADS-B
Tue 10:01:42 AM 35.0580 -94.9970 280° West 402 463 38,000  Level FlightAware ADS-B
Tue 10:02:22 AM 35.0700 -95.0860 279° West 405 466 38,000  Level FlightAware ADS-B
Tue 10:03:02 AM 35.0810 -95.1710 279° West 405 466 38,000  Level FlightAware ADS-B
Tue 10:03:47 AM 35.0940 -95.2650 280° West 405 466 38,000  Level FlightAware ADS-B
Tue 10:04:42 AM 35.1110 -95.3930 279° West 406 467 38,000  Level FlightAware ADS-B
Tue 10:05:22 AM 35.1210 -95.4700 279° West 406 467 38,000  Level FlightAware ADS-B
Tue 10:06:07 AM 35.1350 -95.5920 278° West 403 464 38,000  Level FlightAware ADS-B
Tue 10:06:47 AM 35.1460 -95.6820 279° West 402 463 38,000  Level FlightAware ADS-B
Tue 10:07:32 AM 35.1580 -95.7820 278° West 402 463 38,000  Level FlightAware ADS-B
Tue 10:08:12 AM 35.1690 -95.8740 278° West 402 463 38,000  Level FlightAware ADS-B
Tue 10:08:52 AM 35.1790 -95.9640 278° West 400 460 38,000  Level FlightAware ADS-B
Tue 10:09:37 AM 35.1900 -96.0620 278° West 399 459 38,000  Level FlightAware ADS-B
Tue 10:10:17 AM 35.2010 -96.1520 279° West 399 459 38,000  Level FlightAware ADS-B
Tue 10:11:02 AM 35.2120 -96.2520 278° West 399 459 38,000  Level FlightAware ADS-B
Tue 10:11:42 AM 35.2230 -96.3440 278° West 397 457 38,000  Level FlightAware ADS-B
Tue 10:12:27 AM 35.2330 -96.4360 278° West 398 458 38,000  Level FlightAware ADS-B
Tue 10:13:07 AM 35.2430 -96.5290 278° West 398 458 38,000  Level FlightAware ADS-B
Tue 10:13:47 AM 35.2530 -96.6190 278° West 399 459 38,000  Level FlightAware ADS-B
Tue 10:14:32 AM 35.2650 -96.7230 278° West 399 459 38,000  Level FlightAware ADS-B
Tue 10:15:12 AM 35.2740 -96.8040 278° West 399 459 38,000  Level FlightAware ADS-B
Tue 10:15:47 AM 35.2830 -96.8880 278° West 399 459 38,000  Level FlightAware ADS-B
Tue 10:16:27 AM 35.2920 -96.9700 278° West 400 460 38,000  Level FlightAware ADS-B
Tue 10:17:17 AM 35.3040 -97.0870 277° West 401 461 38,000  Level FlightAware ADS-B
Tue 10:17:57 AM 35.3140 -97.1760 278° West 401 461 38,000  Level FlightAware ADS-B
Tue 10:18:57 AM 35.3280 -97.3150 277° West 401 461 38,000  Level FlightAware ADS-B
Tue 10:19:37 AM 35.3370 -97.4030 277° West 400 460 38,000  Level FlightAware ADS-B
Tue 10:20:22 AM 35.3480 -97.5070 277° West 399 459 38,000  Level FlightAware ADS-B
Tue 10:21:02 AM 35.3570 -97.5980 277° West 399 459 38,000  Level FlightAware ADS-B
Tue 10:21:42 AM 35.3590 -97.6850 272° West 399 459 38,000  Level FlightAware ADS-B
Tue 10:22:27 AM 35.3590 -97.7840 270° West 398 458 38,000  Level FlightAware ADS-B
Tue 10:23:22 AM 35.3590 -97.9030 270° West 398 458 38,000  Level FlightAware ADS-B
Tue 10:24:02 AM 35.3590 -97.9960 270° West 397 457 38,000  Level FlightAware ADS-B
Tue 10:24:47 AM 35.3580 -98.0930 269° West 397 457 38,000  Level FlightAware ADS-B
Tue 10:25:27 AM 35.3560 -98.1690 268° West 397 457 38,000  Level FlightAware ADS-B
Tue 10:26:07 AM 35.3550 -98.2460 269° West 397 457 38,000  Level FlightAware ADS-B
Tue 10:26:47 AM 35.3540 -98.3220 269° West 397 457 38,000  Level FlightAware ADS-B
Tue 10:27:37 AM 35.3530 -98.4180 269° West 397 457 38,000  Level FlightAware ADS-B
Tue 10:28:17 AM 35.3520 -98.4950 269° West 397 457 38,000  Level FlightAware ADS-B
Tue 10:28:57 AM 35.3510 -98.5710 269° West 397 457 38,000  Level FlightAware ADS-B
Tue 10:29:37 AM 35.3500 -98.6480 269° West 397 457 38,000  Level FlightAware ADS-B
Tue 10:30:17 AM 35.3490 -98.7240 269° West 397 457 38,000  Level FlightAware ADS-B
Tue 10:30:57 AM 35.3470 -98.8010 268° West 397 457 38,000  Level FlightAware ADS-B
Tue 10:31:47 AM 35.3460 -98.8970 269° West 397 457 38,000  Level FlightAware ADS-B
Tue 10:32:27 AM 35.3450 -98.9730 269° West 397 457 38,000  Level FlightAware ADS-B
Tue 10:33:07 AM 35.3440 -99.0500 269° West 397 457 38,000  Level FlightAware ADS-B
Tue 10:33:47 AM 35.3430 -99.1260 269° West 397 457 38,000  Level FlightAware ADS-B
Tue 10:34:06 AM 35.3472 -99.3606 269° West 401 461 38,000  Level Fort Worth Center
Tue 10:34:37 AM 35.3483 -99.4347 271° West 402 463 38,000  Level Albuquerque Center
Tue 10:35:39 AM 35.3469 -99.5728 269° West 402 463 38,000  Level Albuquerque Center
Tue 10:36:40 AM 35.3436 -99.7100 268° West 401 461 38,000  Level Albuquerque Center
Tue 10:37:42 AM 35.3358 -99.8469 266° West 401 461 38,000  Level Albuquerque Center
Tue 10:38:44 AM 35.3294 -99.9842 267° West 401 461 38,000  Level Albuquerque Center
Tue 10:39:46 AM 35.3242 -100.1219 267° West 403 464 38,000  Level Albuquerque Center
Tue 10:40:48 AM 35.3167 -100.2597 266° West 404 465 38,000  Level Albuquerque Center
Tue 10:41:49 AM 35.3083 -100.4253 267° West 403 464 38,000  Level Albuquerque Center
Tue 10:42:51 AM 35.3017 -100.5628 267° West 403 464 38,000  Level Albuquerque Center
Tue 10:43:53 AM 35.2956 -100.6881 267° West 404 465 38,000  Level Albuquerque Center
Tue 10:44:55 AM 35.2872 -100.8256 266° West 405 466 38,000  Level Albuquerque Center
Tue 10:45:57 AM 35.2778 -100.9908 266° West 407 468 38,000  Level Albuquerque Center
Tue 10:46:58 AM 35.2706 -101.1281 266° West 406 467 38,000  Level Albuquerque Center
Tue 10:48:00 AM 35.2625 -101.2653 266° West 405 466 38,000  Level Albuquerque Center
Tue 10:49:02 AM 35.2550 -101.3922 266° West 407 468 38,000  Level Albuquerque Center
Tue 10:50:04 AM 35.2486 -101.5578 267° West 405 466 38,000  Level Albuquerque Center
Tue 10:51:06 AM 35.2361 -101.6808 263° West 403 464 38,000  Level Albuquerque Center
Tue 10:52:08 AM 35.2311 -101.8186 267° West 403 464 38,000  Level Albuquerque Center
Tue 10:53:10 AM 35.2292 -101.9789 269° West 401 461 38,000  Level Albuquerque Center
Tue 10:54:11 AM 35.2244 -102.0989 267° West 403 464 38,000  Level Albuquerque Center
Tue 10:55:13 AM 35.2214 -102.2350 268° West 402 463 38,000  Level Albuquerque Center
Tue 10:56:15 AM 35.2156 -102.4000 268° West 404 465 38,000  Level Albuquerque Center
Tue 10:57:17 AM 35.2125 -102.5361 268° West 403 464 38,000  Level Albuquerque Center
Tue 10:58:19 AM 35.2075 -102.6731 267° West 403 464 38,000  Level Albuquerque Center
Tue 10:59:21 AM 35.2039 -102.8117 268° West 408 470 38,000  Level Albuquerque Center
Tue 11:00:22 AM 35.1983 -102.9489 267° West 406 467 38,000  Level Albuquerque Center
Tue 11:01:24 AM 35.1947 -103.0861 268° West 404 465 38,000  Level Albuquerque Center
Tue 11:02:26 AM 35.1897 -103.2489 268° West 407 468 38,000  Level Albuquerque Center
Tue 11:03:28 AM 35.1850 -103.3875 268° West 406 467 38,000  Level Albuquerque Center
Tue 11:04:30 AM 35.1794 -103.5261 267° West 405 466 38,000 242 Level Albuquerque Center
Tue 11:05:32 AM 35.1742 -103.6653 267° West 406 467 38,500 968 Climbing Albuquerque Center
Tue 11:06:34 AM 35.1686 -103.8053 267° West 407 468 40,000 726 Climbing Albuquerque Center
Tue 11:07:36 AM 35.1625 -103.9347 267° West 401 461 40,000  Level Albuquerque Center
Tue 11:08:38 AM 35.1561 -104.0983 267° West 402 463 40,000  Level Albuquerque Center
Tue 11:09:40 AM 35.1500 -104.2336 267° West 401 461 40,000  Level Albuquerque Center
Tue 11:10:42 AM 35.1447 -104.3700 267° West 402 463 40,000  Level Albuquerque Center
Tue 11:11:44 AM 35.1389 -104.5069 267° West 404 465 40,000  Level Albuquerque Center
Tue 11:12:46 AM 35.1308 -104.6414 266° West 407 468 40,000  Level Albuquerque Center
Tue 11:13:48 AM 35.1233 -104.8022 267° West 405 466 40,000  Level Albuquerque Center
Tue 11:14:50 AM 35.1167 -104.9403 267° West 403 464 40,000  Level Albuquerque Center
Tue 11:20:47 AM 35.0880 -105.7500 267° West 395 455 40,000  Level FlightAware ADS-B
Tue 11:21:32 AM 35.0840 -105.8370 267° West 395 455 40,000  Level FlightAware ADS-B
Tue 11:22:12 AM 35.0810 -105.9390 268° West 399 459 40,000  Level FlightAware ADS-B
Tue 11:22:57 AM 35.0770 -106.0410 267° West 400 460 40,000  Level FlightAware ADS-B
Tue 11:23:37 AM 35.0730 -106.1310 267° West 403 464 40,000  Level FlightAware ADS-B
Tue 11:24:17 AM 35.0690 -106.2230 267° West 411 473 40,000  Level FlightAware ADS-B
Tue 11:25:02 AM 35.0650 -106.3280 267° West 418 481 40,000  Level FlightAware ADS-B
Tue 11:25:42 AM 35.0610 -106.4210 267° West 417 480 40,000  Level FlightAware ADS-B
Tue 11:26:27 AM 35.0570 -106.5290 267° West 410 472 40,000  Level FlightAware ADS-B
Tue 11:27:07 AM 35.0530 -106.6200 267° West 405 466 40,000  Level FlightAware ADS-B
Tue 11:27:47 AM 35.0490 -106.7120 267° West 403 464 40,000  Level FlightAware ADS-B
Tue 11:28:32 AM 35.0440 -106.8120 267° West 404 465 40,000  Level FlightAware ADS-B
Tue 11:29:12 AM 35.0410 -106.9030 268° West 407 468 40,000  Level FlightAware ADS-B
Tue 11:29:52 AM 35.0400 -106.9940 269° West 405 466 40,000  Level FlightAware ADS-B
Tue 11:30:37 AM 35.0370 -107.0990 268° West 408 470 40,000  Level FlightAware ADS-B
Tue 11:31:17 AM 35.0340 -107.1910 268° West 407 468 40,000  Level FlightAware ADS-B
Tue 11:32:02 AM 35.0320 -107.2910 269° West 406 467 40,000  Level FlightAware ADS-B
Tue 11:32:42 AM 35.0290 -107.3830 268° West 403 464 40,000  Level FlightAware ADS-B
Tue 11:33:22 AM 35.0260 -107.4730 268° West 399 459 40,000  Level FlightAware ADS-B
Tue 11:34:07 AM 35.0230 -107.5770 268° West 401 461 40,000  Level FlightAware ADS-B
Tue 11:34:47 AM 35.0210 -107.6660 268° West 401 461 40,000  Level FlightAware ADS-B
Tue 11:35:32 AM 35.0170 -107.7670 267° West 406 467 40,000  Level FlightAware ADS-B
Tue 11:36:12 AM 35.0150 -107.8570 268° West 412 474 40,000  Level FlightAware ADS-B
Tue 11:36:57 AM 35.0110 -107.9650 267° West 410 472 40,000  Level FlightAware ADS-B
Tue 11:37:37 AM 35.0080 -108.0560 268° West 408 470 40,000  Level FlightAware ADS-B
Tue 11:38:17 AM 35.0050 -108.1490 268° West 410 472 40,000  Level FlightAware ADS-B
Tue 11:39:02 AM 35.0010 -108.2510 267° West 414 476 40,000  Level FlightAware ADS-B
Tue 11:39:42 AM 34.9980 -108.3430 268° West 412 474 40,000  Level FlightAware ADS-B
Tue 11:40:27 AM 34.9940 -108.4490 267° West 413 475 40,000  Level FlightAware ADS-B
Tue 11:41:07 AM 34.9910 -108.5430 268° West 412 474 40,000  Level FlightAware ADS-B
Tue 11:41:42 AM 34.9880 -108.6190 267° West 410 472 40,000  Level FlightAware ADS-B
Tue 11:42:42 AM 34.9820 -108.7580 267° West 408 470 40,000  Level FlightAware ADS-B
Tue 11:43:27 AM 34.9780 -108.8650 267° West 407 468 40,000  Level FlightAware ADS-B
Tue 11:44:07 AM 34.9740 -108.9490 267° West 408 470 40,000  Level FlightAware ADS-B
Tue 11:44:47 AM 34.9710 -109.0350 268° West 408 470 40,000  Level FlightAware ADS-B
Tue 11:45:27 AM 34.9670 -109.1140 266° West 408 470 40,000  Level FlightAware ADS-B
Tue 11:46:17 AM 34.9630 -109.2110 267° West 408 470 40,000  Level FlightAware ADS-B
Tue 11:46:57 AM 34.9600 -109.2900 267° West 408 470 40,000  Level FlightAware ADS-B
Tue 11:47:52 AM 34.9450 -109.4660 264° West 412 474 40,000  Level FlightAware ADS-B
Tue 11:48:32 AM 34.9390 -109.5450 265° West 412 474 40,000  Level FlightAware ADS-B
Tue 11:49:12 AM 34.9330 -109.6240 265° West 412 474 40,000  Level FlightAware ADS-B
Tue 11:49:52 AM 34.9280 -109.7030 266° West 412 474 40,000  Level FlightAware ADS-B
Tue 11:50:42 AM 34.9210 -109.8010 265° West 412 474 40,000  Level FlightAware ADS-B
Tue 11:51:22 AM 34.9150 -109.8800 265° West 412 474 40,000  Level FlightAware ADS-B
Tue 11:52:02 AM 34.9090 -109.9580 265° West 412 474 40,000  Level FlightAware ADS-B
Tue 11:53:37 AM 34.8900 -110.2440 265° West 418 481 40,000  Level FlightAware ADS-B
Tue 11:54:37 AM 34.8790 -110.3890 265° West 409 471 40,000  Level FlightAware ADS-B
Tue 11:55:12 AM 34.8730 -110.4680 265° West 405 466 40,000  Level FlightAware ADS-B
Tue 11:56:02 AM 34.8650 -110.5690 265° West 387 445 40,000  Level FlightAware ADS-B
Tue 11:56:42 AM 34.8570 -110.6780 265° West 386 444 40,000  Level FlightAware ADS-B
Tue 11:57:27 AM 34.8500 -110.7680 265° West 385 443 40,000  Level FlightAware ADS-B
Tue 11:58:17 AM 34.8420 -110.8680 264° West 385 443 40,000  Level FlightAware ADS-B
Tue 11:59:07 AM 34.8330 -110.9800 264° West 389 448 40,000  Level FlightAware ADS-B
Tue 11:59:47 AM 34.8260 -111.0640 264° West 391 450 40,000  Level FlightAware ADS-B
Tue 12:00:27 PM 34.8180 -111.1570 264° West 392 451 40,000  Level FlightAware ADS-B
Tue 12:01:07 PM 34.8110 -111.2480 265° West 393 452 40,000  Level FlightAware ADS-B
Tue 12:02:07 PM 34.8000 -111.3730 264° West 396 456 40,000  Level FlightAware ADS-B
Tue 12:02:47 PM 34.7930 -111.4640 265° West 395 455 40,000  Level FlightAware ADS-B
Tue 12:03:27 PM 34.7850 -111.5540 264° West 397 457 40,000  Level FlightAware ADS-B
Tue 12:04:07 PM 34.7780 -111.6380 264° West 397 457 40,000  Level FlightAware ADS-B
Tue 12:04:52 PM 34.7690 -111.7400 264° West 395 455 40,000  Level FlightAware ADS-B
Tue 12:05:32 PM 34.7620 -111.8250 264° West 394 453 40,000  Level FlightAware ADS-B
Tue 12:06:12 PM 34.7540 -111.9160 264° West 393 452 40,000  Level FlightAware ADS-B
Tue 12:06:57 PM 34.7450 -112.0100 263° West 392 451 40,000  Level FlightAware ADS-B
Tue 12:07:42 PM 34.7340 -112.1370 264° West 390 449 40,000  Level FlightAware ADS-B
Tue 12:08:22 PM 34.7260 -112.2250 264° West 389 448 40,000  Level FlightAware ADS-B
Tue 12:09:07 PM 34.7170 -112.3260 264° West 389 448 40,000  Level FlightAware ADS-B
Tue 12:09:52 PM 34.7080 -112.4210 263° West 387 445 40,000  Level FlightAware ADS-B
Tue 12:10:32 PM 34.7000 -112.5060 263° West 386 444 40,000  Level FlightAware ADS-B
Tue 12:11:12 PM 34.6900 -112.5900 262° West 385 443 40,000  Level FlightAware ADS-B
Tue 12:11:57 PM 34.6780 -112.6910 262° West 384 442 40,000  Level FlightAware ADS-B
Tue 12:12:37 PM 34.6680 -112.7720 261° West 383 441 40,000  Level FlightAware ADS-B
Tue 12:13:17 PM 34.6580 -112.8600 262° West 381 438 40,000  Level FlightAware ADS-B
Tue 12:14:02 PM 34.6470 -112.9530 262° West 380 437 40,000  Level FlightAware ADS-B
Tue 12:14:42 PM 34.6370 -113.0370 262° West 379 436 40,000  Level FlightAware ADS-B
Tue 12:15:22 PM 34.6260 -113.1220 261° West 378 435 40,000  Level FlightAware ADS-B
Tue 12:16:07 PM 34.6150 -113.2160 262° West 378 435 40,000  Level FlightAware ADS-B
Tue 12:16:47 PM 34.6050 -113.3000 262° West 378 435 40,000  Level FlightAware ADS-B
Tue 12:17:32 PM 34.5930 -113.3930 261° West 379 436 40,000  Level FlightAware ADS-B
Tue 12:18:12 PM 34.5830 -113.4770 262° West 379 436 40,000  Level FlightAware ADS-B
Tue 12:18:52 PM 34.5730 -113.5550 261° West 379 436 40,000  Level FlightAware ADS-B
Tue 12:19:32 PM 34.5630 -113.6310 261° West 378 435 40,000  Level FlightAware ADS-B
Tue 12:20:17 PM 34.5440 -113.7320 257° West 381 438 40,000  Level FlightAware ADS-B
Tue 12:21:02 PM 34.5230 -113.8320 256° West 381 438 40,000  Level FlightAware ADS-B
Tue 12:21:42 PM 34.5060 -113.9150 256° West 382 440 40,000  Level FlightAware ADS-B
Tue 12:22:27 PM 34.4880 -114.0080 257° West 383 441 40,000  Level FlightAware ADS-B
Tue 12:23:07 PM 34.4710 -114.0900 256° West 382 440 40,000  Level FlightAware ADS-B
Tue 12:23:47 PM 34.4530 -114.1740 255° West 382 440 40,000  Level FlightAware ADS-B
Tue 12:24:32 PM 34.4340 -114.2670 256° West 383 441 40,000  Level FlightAware ADS-B
Tue 12:25:12 PM 34.4170 -114.3530 257° West 385 443 40,000  Level FlightAware ADS-B
Tue 12:25:47 PM 34.4020 -114.4240 256° West 386 444 40,000  Level FlightAware ADS-B
Tue 12:26:37 PM 34.3820 -114.5210 256° West 385 443 40,000  Level FlightAware ADS-B
Tue 12:27:12 PM 34.3660 -114.5950 255° West 387 445 40,000  Level FlightAware ADS-B
Tue 12:28:02 PM 34.3450 -114.6970 256° West 388 447 40,000  Level FlightAware ADS-B
Tue 12:28:42 PM 34.3250 -114.7910 256° West 388 447 40,000  Level FlightAware ADS-B
Tue 12:29:27 PM 34.3040 -114.8870 255° West 388 447 40,000  Level FlightAware ADS-B
Tue 12:30:07 PM 34.2870 -114.9690 256° West 388 447 40,000  Level FlightAware ADS-B
Tue 12:30:47 PM 34.2690 -115.0540 256° West 387 445 40,000  Level FlightAware ADS-B
Tue 12:31:32 PM 34.2480 -115.1490 255° West 387 445 40,000  Level FlightAware ADS-B
Tue 12:32:12 PM 34.2310 -115.2290 256° West 387 445 40,000 -225 Level FlightAware ADS-B
Tue 12:32:52 PM 34.2130 -115.3120 255° West 387 445 39,700 -1,059 Descending FlightAware ADS-B
Tue 12:33:37 PM 34.1930 -115.4070 256° West 390 449 38,500 -1,906 Descending FlightAware ADS-B
Tue 12:34:17 PM 34.1740 -115.4910 255° West 405 466 37,000 -1,976 Descending FlightAware ADS-B
Tue 12:35:02 PM 34.1510 -115.5970 255° West 415 478 35,700 -1,765 Descending FlightAware ADS-B
Tue 12:35:42 PM 34.1310 -115.6880 255° West 422 486 34,500 -1,624 Descending FlightAware ADS-B
Tue 12:36:27 PM 34.1100 -115.7870 256° West 425 489 33,400 -1,341 Descending FlightAware ADS-B
Tue 12:37:07 PM 34.0960 -115.8780 260° West 423 487 32,600 -1,350 Descending FlightAware ADS-B
Tue 12:37:47 PM 34.0820 -115.9720 260° West 426 490 31,600 -1,694 Descending FlightAware ADS-B
Tue 12:38:32 PM 34.0660 -116.0830 260° West 433 498 30,200 -1,765 Descending FlightAware ADS-B
Tue 12:39:12 PM 34.0520 -116.1780 260° West 439 505 29,100 -1,725 Descending FlightAware ADS-B
Tue 12:39:52 PM 34.0370 -116.2730 259° West 444 511 27,900 -1,482 Descending FlightAware ADS-B
Tue 12:40:37 PM 34.0210 -116.3820 260° West 434 499 27,000 -1,341 Descending FlightAware ADS-B
Tue 12:41:17 PM 34.0070 -116.4740 260° West 425 489 26,000 -1,765 Descending FlightAware ADS-B
Tue 12:42:02 PM 33.9980 -116.5810 264° West 412 474 24,500 -2,188 Descending FlightAware ADS-B
Tue 12:42:42 PM 33.9900 -116.6710 264° West 403 464 22,900 -2,175 Descending FlightAware ADS-B
Tue 12:43:22 PM 33.9830 -116.7590 265° West 392 451 21,600 -1,694 Descending FlightAware ADS-B
Tue 12:44:07 PM 33.9760 -116.8540 265° West 382 440 20,500 -1,624 Descending FlightAware ADS-B
Tue 12:44:47 PM 33.9690 -116.9360 264° West 374 430 19,300 -2,047 Descending FlightAware ADS-B
Tue 12:45:32 PM 33.9610 -117.0310 264° West 373 429 17,600 -1,694 Descending FlightAware ADS-B
Tue 12:46:12 PM 33.9540 -117.1150 264° West 368 423 16,900 -988 Descending FlightAware ADS-B
Tue 12:46:57 PM 33.9470 -117.2020 264° West 353 406 16,200 -1,059 Descending FlightAware ADS-B
Tue 12:47:37 PM 33.9400 -117.2810 264° West 353 406 15,400 -1,275 Descending FlightAware ADS-B
Tue 12:48:17 PM 33.9340 -117.3600 265° West 353 406 14,500 -1,553 Descending FlightAware ADS-B
Tue 12:49:02 PM 33.9550 -117.4400 288° West 346 398 13,200 -1,765 Descending FlightAware ADS-B
Tue 12:49:42 PM 33.9810 -117.5110 294° West 340 391 12,000 -1,800 Descending FlightAware ADS-B
Tue 12:50:22 PM 34.0050 -117.5800 293° West 334 384 10,800 -1,745 Descending FlightAware ADS-B
Tue 12:50:37 PM 34.0110 -117.6080 285° West 328 377 10,400 -800 Descending FlightAware ADS-B
Tue 12:51:22 PM 34.0070 -117.6840 266° West 294 338 10,000 -655 Descending FlightAware ADS-B
Tue 12:51:32 PM 34.0050 -117.7000 261° West 293 337 9,800 -1,200 Descending FlightAware ADS-B
Tue 12:52:02 PM 34.0010 -117.7480 264° West 292 336 9,200 -1,418 Descending FlightAware ADS-B
Tue 12:52:27 PM 33.9960 -117.7910 262° West 293 337 8,500 -1,500 Descending FlightAware ADS-B
Tue 12:52:42 PM 33.9940 -117.8130 264° West 293 337 8,200 -1,333 Descending FlightAware ADS-B
Tue 12:53:12 PM 33.9890 -117.8610 263° West 293 337 7,500 -1,300 Descending FlightAware ADS-B
Tue 12:53:42 PM 33.9850 -117.9110 265° West 295 339 6,900 -1,309 Descending FlightAware ADS-B
Tue 12:54:07 PM 33.9800 -117.9540 262° West 293 337 6,300 -1,350 Descending FlightAware ADS-B
Tue 12:54:22 PM 33.9780 -117.9770 264° West 292 336 6,000 -1,050 Descending FlightAware ADS-B
Tue 12:54:47 PM 33.9740 -118.0170 263° West 283 326 5,600 -900 Descending FlightAware ADS-B
Tue 12:55:02 PM 33.9720 -118.0390 264° West 274 315 5,400 -933 Descending FlightAware ADS-B
Tue 12:55:32 PM 33.9670 -118.0840 262° West 265 305 4,900 -1,200 Descending FlightAware ADS-B
Tue 12:55:57 PM 33.9640 -118.1210 264° West 251 289 4,300 -1,309 Descending FlightAware ADS-B
Tue 12:56:27 PM 33.9600 -118.1580 263° West 226 260 3,700 -1,200 Descending FlightAware ADS-B
Tue 12:56:57 PM 33.9570 -118.1940 264° West 203 234 3,100 -982 Descending FlightAware ADS-B
Tue 12:57:22 PM 33.9540 -118.2180 261° West 194 223 2,800 -982 Descending FlightAware ADS-B
Tue 12:57:52 PM 33.9510 -118.2500 264° West 195 224 2,200 -1,200 Descending FlightAware ADS-B
Tue 12:58:12 PM 33.9480 -118.2740 261° West 188 216 1,800 -750 Descending FlightAware ADS-B
Tue 12:58:32 PM 33.9480 -118.2810 270° West 179 206 1,700 -600 Descending FlightAware ADS-B
Tue 12:59:02 PM 33.9450 -118.3060 262° West 153 176 1,300 -462 Descending FlightAware ADS-B
Tue 12:59:37 PM 33.9420 -118.3350 263° West 149 171 1,200 -764 Descending FlightAware ADS-B
Tue 12:59:57 PM 33.9400 -118.3550 263° West 147 169 600 -1,200 Descending FlightAware ADS-B
Tue 01:00:27 PM 33.9380 -118.3770 264° West 148 170 200 -800 Descending FlightAware ADS-B

Login

Don't have an account? Register now (free) for customized features, flight alerts, and more!